sensor_id;sensor_type;location;lat;lon;timestamp;P1;durP1;ratioP1;P2;durP2;ratioP2
6288;SDS011;3177;49.880;8.836;2023-05-10T00:02:07;0.60;;;0.60;;
6288;SDS011;3177;49.880;8.836;2023-05-10T00:04:34;0.70;;;0.70;;
6288;SDS011;3177;49.880;8.836;2023-05-10T00:07:03;0.60;;;0.60;;
6288;SDS011;3177;49.880;8.836;2023-05-10T00:09:30;0.80;;;0.80;;
6288;SDS011;3177;49.880;8.836;2023-05-10T00:11:57;0.80;;;0.80;;
6288;SDS011;3177;49.880;8.836;2023-05-10T00:14:24;0.50;;;0.50;;
6288;SDS011;3177;49.880;8.836;2023-05-10T00:16:52;0.80;;;0.80;;
6288;SDS011;3177;49.880;8.836;2023-05-10T00:19:19;0.53;;;0.53;;
6288;SDS011;3177;49.880;8.836;2023-05-10T00:21:46;0.83;;;0.83;;
6288;SDS011;3177;49.880;8.836;2023-05-10T00:24:14;0.90;;;0.90;;
6288;SDS011;3177;49.880;8.836;2023-05-10T00:26:41;0.77;;;0.77;;
6288;SDS011;3177;49.880;8.836;2023-05-10T00:29:08;1.00;;;1.00;;
6288;SDS011;3177;49.880;8.836;2023-05-10T00:31:35;0.80;;;0.80;;
6288;SDS011;3177;49.880;8.836;2023-05-10T00:34:02;0.90;;;0.90;;
6288;SDS011;3177;49.880;8.836;2023-05-10T00:36:29;1.50;;;0.90;;
6288;SDS011;3177;49.880;8.836;2023-05-10T00:38:57;1.00;;;1.00;;
6288;SDS011;3177;49.880;8.836;2023-05-10T00:41:25;1.03;;;0.90;;
6288;SDS011;3177;49.880;8.836;2023-05-10T00:43:53;1.00;;;1.00;;
6288;SDS011;3177;49.880;8.836;2023-05-10T00:46:20;1.43;;;0.90;;
6288;SDS011;3177;49.880;8.836;2023-05-10T00:48:48;0.90;;;0.90;;
6288;SDS011;3177;49.880;8.836;2023-05-10T00:51:15;0.90;;;0.90;;
6288;SDS011;3177;49.880;8.836;2023-05-10T00:53:42;0.90;;;0.90;;
6288;SDS011;3177;49.880;8.836;2023-05-10T00:56:10;1.50;;;0.83;;
6288;SDS011;3177;49.880;8.836;2023-05-10T00:58:39;0.90;;;0.90;;
6288;SDS011;3177;49.880;8.836;2023-05-10T01:01:06;3.03;;;0.97;;
6288;SDS011;3177;49.880;8.836;2023-05-10T01:03:34;1.23;;;1.13;;
6288;SDS011;3177;49.880;8.836;2023-05-10T01:06:01;2.20;;;1.00;;
6288;SDS011;3177;49.880;8.836;2023-05-10T01:08:29;0.70;;;0.70;;
6288;SDS011;3177;49.880;8.836;2023-05-10T01:10:56;0.80;;;0.80;;
6288;SDS011;3177;49.880;8.836;2023-05-10T01:13:28;1.07;;;1.07;;
6288;SDS011;3177;49.880;8.836;2023-05-10T01:15:58;1.47;;;1.30;;
6288;SDS011;3177;49.880;8.836;2023-05-10T01:18:27;4.10;;;1.23;;
6288;SDS011;3177;49.880;8.836;2023-05-10T01:20:59;1.20;;;1.20;;
6288;SDS011;3177;49.880;8.836;2023-05-10T01:23:35;1.33;;;1.33;;
6288;SDS011;3177;49.880;8.836;2023-05-10T01:26:07;1.53;;;1.43;;
6288;SDS011;3177;49.880;8.836;2023-05-10T01:28:58;1.33;;;1.33;;
6288;SDS011;3177;49.880;8.836;2023-05-10T01:34:13;2.00;;;1.90;;
6288;SDS011;3177;49.880;8.836;2023-05-10T01:36:43;1.90;;;1.80;;
6288;SDS011;3177;49.880;8.836;2023-05-10T01:39:14;1.77;;;1.67;;
6288;SDS011;3177;49.880;8.836;2023-05-10T01:41:44;2.70;;;2.10;;
6288;SDS011;3177;49.880;8.836;2023-05-10T01:44:16;2.03;;;1.93;;
6288;SDS011;3177;49.880;8.836;2023-05-10T01:46:45;2.40;;;2.00;;
6288;SDS011;3177;49.880;8.836;2023-05-10T01:49:19;1.97;;;1.87;;
6288;SDS011;3177;49.880;8.836;2023-05-10T01:51:49;2.00;;;1.90;;
6288;SDS011;3177;49.880;8.836;2023-05-10T01:54:17;2.07;;;1.87;;
6288;SDS011;3177;49.880;8.836;2023-05-10T01:56:46;1.80;;;1.70;;
6288;SDS011;3177;49.880;8.836;2023-05-10T01:59:15;1.70;;;1.60;;
6288;SDS011;3177;49.880;8.836;2023-05-10T02:01:44;1.83;;;1.73;;
6288;SDS011;3177;49.880;8.836;2023-05-10T02:04:11;1.53;;;1.47;;
6288;SDS011;3177;49.880;8.836;2023-05-10T02:06:41;1.63;;;1.50;;
6288;SDS011;3177;49.880;8.836;2023-05-10T02:09:08;1.50;;;1.50;;
6288;SDS011;3177;49.880;8.836;2023-05-10T02:11:36;1.63;;;1.53;;
6288;SDS011;3177;49.880;8.836;2023-05-10T02:14:04;1.87;;;1.77;;
6288;SDS011;3177;49.880;8.836;2023-05-10T02:16:32;1.70;;;1.60;;
6288;SDS011;3177;49.880;8.836;2023-05-10T02:19:01;1.70;;;1.60;;
6288;SDS011;3177;49.880;8.836;2023-05-10T02:21:28;1.40;;;1.40;;
6288;SDS011;3177;49.880;8.836;2023-05-10T02:23:57;1.53;;;1.50;;
6288;SDS011;3177;49.880;8.836;2023-05-10T02:26:24;1.60;;;1.50;;
6288;SDS011;3177;49.880;8.836;2023-05-10T02:28:53;1.40;;;1.40;;
6288;SDS011;3177;49.880;8.836;2023-05-10T02:31:20;2.43;;;1.50;;
6288;SDS011;3177;49.880;8.836;2023-05-10T02:33:48;1.60;;;1.50;;
6288;SDS011;3177;49.880;8.836;2023-05-10T02:36:15;1.37;;;1.37;;
6288;SDS011;3177;49.880;8.836;2023-05-10T02:38:43;3.03;;;1.40;;
6288;SDS011;3177;49.880;8.836;2023-05-10T02:41:12;1.40;;;1.40;;
6288;SDS011;3177;49.880;8.836;2023-05-10T02:43:39;1.33;;;1.20;;
6288;SDS011;3177;49.880;8.836;2023-05-10T02:46:07;1.30;;;1.20;;
6288;SDS011;3177;49.880;8.836;2023-05-10T02:48:34;1.20;;;1.20;;
6288;SDS011;3177;49.880;8.836;2023-05-10T02:51:03;1.20;;;1.20;;
6288;SDS011;3177;49.880;8.836;2023-05-10T02:53:33;1.40;;;1.30;;
6288;SDS011;3177;49.880;8.836;2023-05-10T02:56:00;1.40;;;1.30;;
6288;SDS011;3177;49.880;8.836;2023-05-10T02:58:30;1.40;;;1.30;;
6288;SDS011;3177;49.880;8.836;2023-05-10T03:00:57;1.90;;;1.40;;
6288;SDS011;3177;49.880;8.836;2023-05-10T03:03:24;1.40;;;1.40;;
6288;SDS011;3177;49.880;8.836;2023-05-10T03:05:51;3.43;;;1.50;;
6288;SDS011;3177;49.880;8.836;2023-05-10T03:08:20;1.60;;;1.50;;
6288;SDS011;3177;49.880;8.836;2023-05-10T03:10:51;1.50;;;1.40;;
6288;SDS011;3177;49.880;8.836;2023-05-10T03:13:24;1.43;;;1.40;;
6288;SDS011;3177;49.880;8.836;2023-05-10T03:15:56;1.50;;;1.40;;
6288;SDS011;3177;49.880;8.836;2023-05-10T03:18:28;1.23;;;1.23;;
6288;SDS011;3177;49.880;8.836;2023-05-10T03:20:56;1.50;;;1.40;;
6288;SDS011;3177;49.880;8.836;2023-05-10T03:23:26;1.50;;;1.43;;
6288;SDS011;3177;49.880;8.836;2023-05-10T03:25:53;1.70;;;1.60;;
6288;SDS011;3177;49.880;8.836;2023-05-10T03:28:21;1.53;;;1.43;;
6288;SDS011;3177;49.880;8.836;2023-05-10T03:30:48;1.43;;;1.33;;
6288;SDS011;3177;49.880;8.836;2023-05-10T03:33:17;1.47;;;1.40;;
6288;SDS011;3177;49.880;8.836;2023-05-10T03:35:45;1.93;;;1.50;;
6288;SDS011;3177;49.880;8.836;2023-05-10T03:38:12;2.83;;;1.70;;
6288;SDS011;3177;49.880;8.836;2023-05-10T03:40:39;2.00;;;1.77;;
6288;SDS011;3177;49.880;8.836;2023-05-10T03:43:06;1.90;;;1.80;;
6288;SDS011;3177;49.880;8.836;2023-05-10T03:45:33;2.03;;;1.90;;
6288;SDS011;3177;49.880;8.836;2023-05-10T03:48:00;1.80;;;1.70;;
6288;SDS011;3177;49.880;8.836;2023-05-10T03:50:29;1.70;;;1.60;;
6288;SDS011;3177;49.880;8.836;2023-05-10T03:52:56;1.83;;;1.50;;
6288;SDS011;3177;49.880;8.836;2023-05-10T03:55:23;1.70;;;1.60;;
6288;SDS011;3177;49.880;8.836;2023-05-10T03:57:50;1.70;;;1.60;;
6288;SDS011;3177;49.880;8.836;2023-05-10T04:00:19;2.07;;;1.97;;
6288;SDS011;3177;49.880;8.836;2023-05-10T04:02:46;1.80;;;1.70;;
6288;SDS011;3177;49.880;8.836;2023-05-10T04:05:13;2.03;;;1.93;;
6288;SDS011;3177;49.880;8.836;2023-05-10T04:07:43;2.63;;;1.97;;
6288;SDS011;3177;49.880;8.836;2023-05-10T04:10:12;2.20;;;2.10;;
6288;SDS011;3177;49.880;8.836;2023-05-10T04:12:39;1.63;;;1.53;;
6288;SDS011;3177;49.880;8.836;2023-05-10T04:15:07;1.80;;;1.70;;
6288;SDS011;3177;49.880;8.836;2023-05-10T04:17:34;1.97;;;1.70;;
6288;SDS011;3177;49.880;8.836;2023-05-10T04:20:01;2.03;;;1.93;;
6288;SDS011;3177;49.880;8.836;2023-05-10T04:22:28;3.93;;;2.20;;
6288;SDS011;3177;49.880;8.836;2023-05-10T04:25:13;2.20;;;2.00;;
6288;SDS011;3177;49.880;8.836;2023-05-10T04:27:40;2.23;;;2.03;;
6288;SDS011;3177;49.880;8.836;2023-05-10T04:30:08;2.87;;;2.10;;
6288;SDS011;3177;49.880;8.836;2023-05-10T04:32:35;2.93;;;2.13;;
6288;SDS011;3177;49.880;8.836;2023-05-10T04:35:02;2.10;;;1.90;;
6288;SDS011;3177;49.880;8.836;2023-05-10T04:37:30;2.13;;;2.03;;
6288;SDS011;3177;49.880;8.836;2023-05-10T04:39:57;2.57;;;2.37;;
6288;SDS011;3177;49.880;8.836;2023-05-10T04:42:26;2.63;;;2.43;;
6288;SDS011;3177;49.880;8.836;2023-05-10T04:44:53;2.97;;;2.70;;
6288;SDS011;3177;49.880;8.836;2023-05-10T04:47:20;2.93;;;2.20;;
6288;SDS011;3177;49.880;8.836;2023-05-10T04:49:47;2.50;;;2.30;;
6288;SDS011;3177;49.880;8.836;2023-05-10T04:52:14;2.60;;;2.40;;
6288;SDS011;3177;49.880;8.836;2023-05-10T04:54:42;2.50;;;2.40;;
6288;SDS011;3177;49.880;8.836;2023-05-10T04:57:11;3.50;;;2.43;;
6288;SDS011;3177;49.880;8.836;2023-05-10T04:59:39;2.17;;;2.03;;
6288;SDS011;3177;49.880;8.836;2023-05-10T05:02:23;2.77;;;2.20;;
6288;SDS011;3177;49.880;8.836;2023-05-10T05:05:01;2.30;;;2.20;;
6288;SDS011;3177;49.880;8.836;2023-05-10T05:07:34;2.60;;;2.40;;
6288;SDS011;3177;49.880;8.836;2023-05-10T05:10:01;3.27;;;2.27;;
6288;SDS011;3177;49.880;8.836;2023-05-10T05:12:28;2.13;;;1.93;;
6288;SDS011;3177;49.880;8.836;2023-05-10T05:14:57;2.20;;;2.10;;
6288;SDS011;3177;49.880;8.836;2023-05-10T05:17:24;2.50;;;2.30;;
6288;SDS011;3177;49.880;8.836;2023-05-10T05:19:51;2.30;;;2.10;;
6288;SDS011;3177;49.880;8.836;2023-05-10T05:22:18;2.60;;;2.40;;
6288;SDS011;3177;49.880;8.836;2023-05-10T05:24:52;2.70;;;2.43;;
6288;SDS011;3177;49.880;8.836;2023-05-10T05:27:19;2.90;;;2.60;;
6288;SDS011;3177;49.880;8.836;2023-05-10T05:29:49;3.20;;;2.67;;
6288;SDS011;3177;49.880;8.836;2023-05-10T05:32:17;2.60;;;2.40;;
6288;SDS011;3177;49.880;8.836;2023-05-10T05:34:44;2.90;;;2.60;;
6288;SDS011;3177;49.880;8.836;2023-05-10T05:37:12;3.27;;;2.10;;
6288;SDS011;3177;49.880;8.836;2023-05-10T05:39:40;2.60;;;2.40;;
6288;SDS011;3177;49.880;8.836;2023-05-10T05:42:07;3.10;;;2.60;;
6288;SDS011;3177;49.880;8.836;2023-05-10T05:44:34;2.73;;;2.50;;
6288;SDS011;3177;49.880;8.836;2023-05-10T05:47:01;4.30;;;2.57;;
6288;SDS011;3177;49.880;8.836;2023-05-10T05:49:30;3.63;;;2.57;;
6288;SDS011;3177;49.880;8.836;2023-05-10T05:51:58;2.80;;;2.60;;
6288;SDS011;3177;49.880;8.836;2023-05-10T05:54:26;3.47;;;2.67;;
6288;SDS011;3177;49.880;8.836;2023-05-10T05:56:53;2.43;;;2.33;;
6288;SDS011;3177;49.880;8.836;2023-05-10T05:59:21;4.20;;;2.73;;
6288;SDS011;3177;49.880;8.836;2023-05-10T06:01:48;2.70;;;2.50;;
6288;SDS011;3177;49.880;8.836;2023-05-10T06:04:15;4.83;;;2.73;;
6288;SDS011;3177;49.880;8.836;2023-05-10T06:06:44;4.47;;;2.80;;
6288;SDS011;3177;49.880;8.836;2023-05-10T06:09:11;3.73;;;2.70;;
6288;SDS011;3177;49.880;8.836;2023-05-10T06:11:38;3.37;;;2.40;;
6288;SDS011;3177;49.880;8.836;2023-05-10T06:14:05;5.73;;;2.80;;
6288;SDS011;3177;49.880;8.836;2023-05-10T06:16:33;4.87;;;2.40;;
6288;SDS011;3177;49.880;8.836;2023-05-10T06:19:00;2.67;;;2.10;;
6288;SDS011;3177;49.880;8.836;2023-05-10T06:21:27;3.70;;;1.87;;
6288;SDS011;3177;49.880;8.836;2023-05-10T06:23:56;2.87;;;2.00;;
6288;SDS011;3177;49.880;8.836;2023-05-10T06:26:23;3.60;;;2.57;;
6288;SDS011;3177;49.880;8.836;2023-05-10T06:28:50;7.27;;;2.30;;
6288;SDS011;3177;49.880;8.836;2023-05-10T06:31:17;4.47;;;2.60;;
6288;SDS011;3177;49.880;8.836;2023-05-10T06:33:44;4.30;;;2.53;;
6288;SDS011;3177;49.880;8.836;2023-05-10T06:36:11;3.93;;;2.37;;
6288;SDS011;3177;49.880;8.836;2023-05-10T06:38:39;2.40;;;2.20;;
6288;SDS011;3177;49.880;8.836;2023-05-10T06:41:08;2.53;;;2.33;;
6288;SDS011;3177;49.880;8.836;2023-05-10T06:43:35;4.53;;;2.50;;
6288;SDS011;3177;49.880;8.836;2023-05-10T06:46:05;2.57;;;2.37;;
6288;SDS011;3177;49.880;8.836;2023-05-10T06:48:32;2.97;;;2.07;;
6288;SDS011;3177;49.880;8.836;2023-05-10T06:50:59;4.17;;;2.47;;
6288;SDS011;3177;49.880;8.836;2023-05-10T06:53:26;3.73;;;2.50;;
6288;SDS011;3177;49.880;8.836;2023-05-10T06:55:54;5.03;;;3.03;;
6288;SDS011;3177;49.880;8.836;2023-05-10T06:58:22;3.10;;;2.30;;
6288;SDS011;3177;49.880;8.836;2023-05-10T07:00:49;2.33;;;2.17;;
6288;SDS011;3177;49.880;8.836;2023-05-10T07:03:16;2.73;;;2.10;;
6288;SDS011;3177;49.880;8.836;2023-05-10T07:05:43;2.63;;;2.40;;
6288;SDS011;3177;49.880;8.836;2023-05-10T07:08:11;3.53;;;2.70;;
6288;SDS011;3177;49.880;8.836;2023-05-10T07:10:38;3.80;;;3.00;;
6288;SDS011;3177;49.880;8.836;2023-05-10T07:13:05;3.03;;;2.73;;
6288;SDS011;3177;49.880;8.836;2023-05-10T07:15:34;3.37;;;2.80;;
6288;SDS011;3177;49.880;8.836;2023-05-10T07:18:01;3.17;;;2.87;;
6288;SDS011;3177;49.880;8.836;2023-05-10T07:20:29;3.33;;;2.60;;
6288;SDS011;3177;49.880;8.836;2023-05-10T07:22:56;4.03;;;3.17;;
6288;SDS011;3177;49.880;8.836;2023-05-10T07:25:23;3.57;;;3.03;;
6288;SDS011;3177;49.880;8.836;2023-05-10T07:28:00;3.47;;;3.17;;
6288;SDS011;3177;49.880;8.836;2023-05-10T07:30:35;6.13;;;2.97;;
6288;SDS011;3177;49.880;8.836;2023-05-10T07:33:02;3.00;;;2.80;;
6288;SDS011;3177;49.880;8.836;2023-05-10T07:35:30;3.97;;;3.20;;
6288;SDS011;3177;49.880;8.836;2023-05-10T07:37:57;4.20;;;2.87;;
6288;SDS011;3177;49.880;8.836;2023-05-10T07:40:24;3.13;;;2.90;;
6288;SDS011;3177;49.880;8.836;2023-05-10T07:42:54;5.07;;;3.00;;
6288;SDS011;3177;49.880;8.836;2023-05-10T07:45:21;6.53;;;3.13;;
6288;SDS011;3177;49.880;8.836;2023-05-10T07:47:50;6.07;;;3.60;;
6288;SDS011;3177;49.880;8.836;2023-05-10T07:50:25;3.47;;;2.57;;
6288;SDS011;3177;49.880;8.836;2023-05-10T07:52:52;2.87;;;2.67;;
6288;SDS011;3177;49.880;8.836;2023-05-10T07:55:19;2.67;;;2.47;;
6288;SDS011;3177;49.880;8.836;2023-05-10T07:57:49;2.57;;;2.37;;
6288;SDS011;3177;49.880;8.836;2023-05-10T08:02:53;3.10;;;2.50;;
6288;SDS011;3177;49.880;8.836;2023-05-10T08:05:21;4.17;;;3.07;;
6288;SDS011;3177;49.880;8.836;2023-05-10T08:07:48;4.60;;;2.50;;
6288;SDS011;3177;49.880;8.836;2023-05-10T08:10:15;3.37;;;2.43;;
6288;SDS011;3177;49.880;8.836;2023-05-10T08:12:42;3.90;;;2.60;;
6288;SDS011;3177;49.880;8.836;2023-05-10T08:15:10;3.00;;;2.67;;
6288;SDS011;3177;49.880;8.836;2023-05-10T08:17:37;2.53;;;2.33;;
6288;SDS011;3177;49.880;8.836;2023-05-10T08:20:06;4.30;;;2.53;;
6288;SDS011;3177;49.880;8.836;2023-05-10T08:22:33;4.17;;;2.27;;
6288;SDS011;3177;49.880;8.836;2023-05-10T08:25:00;2.00;;;1.90;;
6288;SDS011;3177;49.880;8.836;2023-05-10T08:27:27;2.87;;;1.90;;
6288;SDS011;3177;49.880;8.836;2023-05-10T08:29:54;2.83;;;2.00;;
6288;SDS011;3177;49.880;8.836;2023-05-10T08:32:24;2.30;;;2.10;;
6288;SDS011;3177;49.880;8.836;2023-05-10T08:34:51;2.63;;;2.23;;
6288;SDS011;3177;49.880;8.836;2023-05-10T08:37:19;2.63;;;2.30;;
6288;SDS011;3177;49.880;8.836;2023-05-10T08:39:46;2.07;;;1.90;;
6288;SDS011;3177;49.880;8.836;2023-05-10T08:42:13;2.00;;;1.90;;
6288;SDS011;3177;49.880;8.836;2023-05-10T08:44:42;1.93;;;1.70;;
6288;SDS011;3177;49.880;8.836;2023-05-10T08:47:09;2.33;;;1.50;;
6288;SDS011;3177;49.880;8.836;2023-05-10T08:49:37;1.80;;;1.70;;
6288;SDS011;3177;49.880;8.836;2023-05-10T08:52:04;2.10;;;1.90;;
6288;SDS011;3177;49.880;8.836;2023-05-10T08:54:33;1.80;;;1.70;;
6288;SDS011;3177;49.880;8.836;2023-05-10T08:57:01;1.80;;;1.63;;
6288;SDS011;3177;49.880;8.836;2023-05-10T08:59:28;3.30;;;1.97;;
6288;SDS011;3177;49.880;8.836;2023-05-10T09:01:56;2.20;;;1.57;;
6288;SDS011;3177;49.880;8.836;2023-05-10T09:04:24;2.37;;;2.13;;
6288;SDS011;3177;49.880;8.836;2023-05-10T09:06:51;2.27;;;1.90;;
6288;SDS011;3177;49.880;8.836;2023-05-10T09:09:19;2.60;;;2.33;;
6288;SDS011;3177;49.880;8.836;2023-05-10T09:11:48;2.20;;;2.00;;
6288;SDS011;3177;49.880;8.836;2023-05-10T09:14:15;2.30;;;2.10;;
6288;SDS011;3177;49.880;8.836;2023-05-10T09:16:44;2.73;;;2.37;;
6288;SDS011;3177;49.880;8.836;2023-05-10T09:19:11;2.17;;;2.00;;
6288;SDS011;3177;49.880;8.836;2023-05-10T09:21:38;2.53;;;2.17;;
6288;SDS011;3177;49.880;8.836;2023-05-10T09:24:06;2.47;;;2.27;;
6288;SDS011;3177;49.880;8.836;2023-05-10T09:26:33;2.60;;;2.40;;
6288;SDS011;3177;49.880;8.836;2023-05-10T09:29:02;2.73;;;2.40;;
6288;SDS011;3177;49.880;8.836;2023-05-10T09:31:44;2.40;;;2.20;;
6288;SDS011;3177;49.880;8.836;2023-05-10T09:34:12;2.63;;;2.43;;
6288;SDS011;3177;49.880;8.836;2023-05-10T09:36:52;3.33;;;2.40;;
6288;SDS011;3177;49.880;8.836;2023-05-10T09:39:20;2.33;;;2.13;;
6288;SDS011;3177;49.880;8.836;2023-05-10T09:41:47;2.60;;;2.40;;
6288;SDS011;3177;49.880;8.836;2023-05-10T09:44:17;2.30;;;2.10;;
6288;SDS011;3177;49.880;8.836;2023-05-10T09:46:48;2.53;;;2.20;;
6288;SDS011;3177;49.880;8.836;2023-05-10T09:49:16;3.90;;;2.00;;
6288;SDS011;3177;49.880;8.836;2023-05-10T09:51:43;2.60;;;1.87;;
6288;SDS011;3177;49.880;8.836;2023-05-10T09:54:11;1.90;;;1.80;;
6288;SDS011;3177;49.880;8.836;2023-05-10T09:56:39;2.20;;;2.00;;
6288;SDS011;3177;49.880;8.836;2023-05-10T09:59:07;1.87;;;1.77;;
6288;SDS011;3177;49.880;8.836;2023-05-10T10:01:35;1.93;;;1.80;;
6288;SDS011;3177;49.880;8.836;2023-05-10T10:04:06;1.33;;;1.33;;
6288;SDS011;3177;49.880;8.836;2023-05-10T10:06:37;1.40;;;1.40;;
6288;SDS011;3177;49.880;8.836;2023-05-10T10:09:04;1.70;;;1.20;;
6288;SDS011;3177;49.880;8.836;2023-05-10T10:11:33;4.73;;;1.50;;
6288;SDS011;3177;49.880;8.836;2023-05-10T10:14:00;1.47;;;1.37;;
6288;SDS011;3177;49.880;8.836;2023-05-10T10:16:28;4.20;;;1.83;;
6288;SDS011;3177;49.880;8.836;2023-05-10T10:18:57;5.50;;;1.80;;
6288;SDS011;3177;49.880;8.836;2023-05-10T10:21:24;1.73;;;1.53;;
6288;SDS011;3177;49.880;8.836;2023-05-10T10:23:51;1.60;;;1.50;;
6288;SDS011;3177;49.880;8.836;2023-05-10T10:26:19;4.90;;;1.37;;
6288;SDS011;3177;49.880;8.836;2023-05-10T10:28:49;1.47;;;1.37;;
6288;SDS011;3177;49.880;8.836;2023-05-10T10:31:17;2.13;;;1.60;;
6288;SDS011;3177;49.880;8.836;2023-05-10T10:33:57;1.50;;;1.40;;
6288;SDS011;3177;49.880;8.836;2023-05-10T10:36:26;2.17;;;1.50;;
6288;SDS011;3177;49.880;8.836;2023-05-10T10:39:00;6.30;;;1.63;;
6288;SDS011;3177;49.880;8.836;2023-05-10T10:41:32;2.10;;;1.40;;
6288;SDS011;3177;49.880;8.836;2023-05-10T10:49:48;2.27;;;1.77;;
6288;SDS011;3177;49.880;8.836;2023-05-10T10:52:23;1.60;;;1.50;;
6288;SDS011;3177;49.880;8.836;2023-05-10T10:54:54;1.70;;;1.60;;
6288;SDS011;3177;49.880;8.836;2023-05-10T10:57:24;2.40;;;1.60;;
6288;SDS011;3177;49.880;8.836;2023-05-10T10:59:54;4.30;;;2.03;;
6288;SDS011;3177;49.880;8.836;2023-05-10T11:02:45;1.90;;;1.60;;
6288;SDS011;3177;49.880;8.836;2023-05-10T11:05:24;2.60;;;1.87;;
6288;SDS011;3177;49.880;8.836;2023-05-10T11:07:52;1.87;;;1.77;;
6288;SDS011;3177;49.880;8.836;2023-05-10T11:10:19;4.50;;;2.27;;
6288;SDS011;3177;49.880;8.836;2023-05-10T11:12:53;2.50;;;2.00;;
6288;SDS011;3177;49.880;8.836;2023-05-10T11:15:28;1.93;;;1.80;;
6288;SDS011;3177;49.880;8.836;2023-05-10T11:17:55;2.33;;;2.13;;
6288;SDS011;3177;49.880;8.836;2023-05-10T11:20:24;2.40;;;1.60;;
6288;SDS011;3177;49.880;8.836;2023-05-10T11:23:00;1.87;;;1.77;;
6288;SDS011;3177;49.880;8.836;2023-05-10T11:25:40;2.00;;;1.80;;
6288;SDS011;3177;49.880;8.836;2023-05-10T11:28:08;2.40;;;1.50;;
6288;SDS011;3177;49.880;8.836;2023-05-10T11:30:36;2.00;;;1.43;;
6288;SDS011;3177;49.880;8.836;2023-05-10T11:33:03;4.07;;;1.30;;
6288;SDS011;3177;49.880;8.836;2023-05-10T11:35:33;3.43;;;1.60;;
6288;SDS011;3177;49.880;8.836;2023-05-10T11:38:04;1.50;;;1.27;;
6288;SDS011;3177;49.880;8.836;2023-05-10T11:40:33;1.30;;;1.20;;
6288;SDS011;3177;49.880;8.836;2023-05-10T11:43:00;2.93;;;1.47;;
6288;SDS011;3177;49.880;8.836;2023-05-10T11:45:28;1.40;;;1.30;;
6288;SDS011;3177;49.880;8.836;2023-05-10T11:47:56;3.13;;;1.30;;
6288;SDS011;3177;49.880;8.836;2023-05-10T11:50:24;1.40;;;1.30;;
6288;SDS011;3177;49.880;8.836;2023-05-10T11:52:53;1.77;;;1.63;;
6288;SDS011;3177;49.880;8.836;2023-05-10T11:55:21;1.60;;;1.50;;
6288;SDS011;3177;49.880;8.836;2023-05-10T11:57:51;4.97;;;1.30;;
6288;SDS011;3177;49.880;8.836;2023-05-10T12:00:18;5.07;;;1.50;;
6288;SDS011;3177;49.880;8.836;2023-05-10T12:02:45;1.53;;;1.40;;
6288;SDS011;3177;49.880;8.836;2023-05-10T12:05:13;1.97;;;1.40;;
6288;SDS011;3177;49.880;8.836;2023-05-10T12:07:40;3.33;;;1.40;;
6288;SDS011;3177;49.880;8.836;2023-05-10T12:10:09;1.90;;;1.27;;
6288;SDS011;3177;49.880;8.836;2023-05-10T12:12:39;2.43;;;1.50;;
6288;SDS011;3177;49.880;8.836;2023-05-10T12:15:11;1.27;;;1.27;;
6288;SDS011;3177;49.880;8.836;2023-05-10T12:17:38;1.50;;;1.40;;
6288;SDS011;3177;49.880;8.836;2023-05-10T12:20:18;1.20;;;1.20;;
6288;SDS011;3177;49.880;8.836;2023-05-10T12:22:49;1.10;;;1.00;;
6288;SDS011;3177;49.880;8.836;2023-05-10T12:25:18;1.20;;;1.10;;
6288;SDS011;3177;49.880;8.836;2023-05-10T12:27:49;2.07;;;1.20;;
6288;SDS011;3177;49.880;8.836;2023-05-10T12:30:20;2.30;;;1.10;;
6288;SDS011;3177;49.880;8.836;2023-05-10T12:32:47;2.60;;;0.98;;
6288;SDS011;3177;49.880;8.836;2023-05-10T12:35:15;3.97;;;1.20;;
6288;SDS011;3177;49.880;8.836;2023-05-10T12:37:42;1.00;;;1.00;;
6288;SDS011;3177;49.880;8.836;2023-05-10T12:40:09;2.03;;;0.95;;
6288;SDS011;3177;49.880;8.836;2023-05-10T12:42:38;1.23;;;1.13;;
6288;SDS011;3177;49.880;8.836;2023-05-10T12:45:06;1.50;;;1.30;;
6288;SDS011;3177;49.880;8.836;2023-05-10T12:47:34;1.33;;;1.23;;
6288;SDS011;3177;49.880;8.836;2023-05-10T12:50:01;1.30;;;1.20;;
6288;SDS011;3177;49.880;8.836;2023-05-10T12:52:28;1.58;;;1.48;;
6288;SDS011;3177;49.880;8.836;2023-05-10T12:54:57;1.35;;;1.25;;
6288;SDS011;3177;49.880;8.836;2023-05-10T12:57:24;2.92;;;1.55;;
6288;SDS011;3177;49.880;8.836;2023-05-10T12:59:52;1.20;;;1.10;;
6288;SDS011;3177;49.880;8.836;2023-05-10T13:02:19;3.13;;;1.00;;
6288;SDS011;3177;49.880;8.836;2023-05-10T13:04:48;0.80;;;0.80;;
6288;SDS011;3177;49.880;8.836;2023-05-10T13:07:15;2.60;;;1.05;;
6288;SDS011;3177;49.880;8.836;2023-05-10T13:09:42;1.02;;;0.80;;
6288;SDS011;3177;49.880;8.836;2023-05-10T13:12:09;2.80;;;1.00;;
6288;SDS011;3177;49.880;8.836;2023-05-10T13:14:36;1.33;;;1.15;;
6288;SDS011;3177;49.880;8.836;2023-05-10T13:17:06;1.25;;;1.10;;
6288;SDS011;3177;49.880;8.836;2023-05-10T13:19:33;1.52;;;1.40;;
6288;SDS011;3177;49.880;8.836;2023-05-10T13:22:01;0.80;;;0.80;;
6288;SDS011;3177;49.880;8.836;2023-05-10T13:24:28;1.42;;;1.00;;
6288;SDS011;3177;49.880;8.836;2023-05-10T13:26:55;1.20;;;1.10;;
6288;SDS011;3177;49.880;8.836;2023-05-10T13:29:22;1.52;;;0.77;;
6288;SDS011;3177;49.880;8.836;2023-05-10T13:31:49;3.15;;;1.42;;
6288;SDS011;3177;49.880;8.836;2023-05-10T13:34:17;2.10;;;0.98;;
6288;SDS011;3177;49.880;8.836;2023-05-10T13:36:46;1.05;;;0.95;;
6288;SDS011;3177;49.880;8.836;2023-05-10T13:39:13;1.85;;;1.05;;
6288;SDS011;3177;49.880;8.836;2023-05-10T13:41:41;1.20;;;1.10;;
6288;SDS011;3177;49.880;8.836;2023-05-10T13:44:08;2.13;;;0.98;;
6288;SDS011;3177;49.880;8.836;2023-05-10T13:46:35;1.05;;;0.90;;
6288;SDS011;3177;49.880;8.836;2023-05-10T13:49:03;4.05;;;1.90;;
6288;SDS011;3177;49.880;8.836;2023-05-10T13:51:32;2.47;;;1.30;;
6288;SDS011;3177;49.880;8.836;2023-05-10T13:53:59;2.45;;;1.30;;
6288;SDS011;3177;49.880;8.836;2023-05-10T13:56:26;1.77;;;1.30;;
6288;SDS011;3177;49.880;8.836;2023-05-10T13:58:54;1.20;;;1.10;;
6288;SDS011;3177;49.880;8.836;2023-05-10T14:01:21;3.63;;;1.70;;
6288;SDS011;3177;49.880;8.836;2023-05-10T14:03:49;2.25;;;1.20;;
6288;SDS011;3177;49.880;8.836;2023-05-10T14:06:16;0.93;;;0.82;;
6288;SDS011;3177;49.880;8.836;2023-05-10T14:08:44;1.00;;;0.77;;
6288;SDS011;3177;49.880;8.836;2023-05-10T14:11:11;0.80;;;0.80;;
6288;SDS011;3177;49.880;8.836;2023-05-10T14:13:38;2.38;;;1.30;;
6288;SDS011;3177;49.880;8.836;2023-05-10T14:16:06;1.95;;;1.10;;
6288;SDS011;3177;49.880;8.836;2023-05-10T14:18:33;4.20;;;1.27;;
6288;SDS011;3177;49.880;8.836;2023-05-10T14:21:01;1.60;;;1.08;;
6288;SDS011;3177;49.880;8.836;2023-05-10T14:23:28;1.30;;;0.98;;
6288;SDS011;3177;49.880;8.836;2023-05-10T14:25:57;1.65;;;0.82;;
6288;SDS011;3177;49.880;8.836;2023-05-10T14:28:24;2.05;;;0.75;;
6288;SDS011;3177;49.880;8.836;2023-05-10T14:30:51;3.15;;;1.05;;
6288;SDS011;3177;49.880;8.836;2023-05-10T14:33:18;3.85;;;0.98;;
6288;SDS011;3177;49.880;8.836;2023-05-10T14:35:45;2.20;;;0.93;;
6288;SDS011;3177;49.880;8.836;2023-05-10T14:38:13;2.13;;;0.85;;
6288;SDS011;3177;49.880;8.836;2023-05-10T14:40:40;1.10;;;1.00;;
6288;SDS011;3177;49.880;8.836;2023-05-10T14:43:09;2.45;;;1.10;;
6288;SDS011;3177;49.880;8.836;2023-05-10T14:45:36;2.78;;;1.38;;
6288;SDS011;3177;49.880;8.836;2023-05-10T14:48:03;1.67;;;1.10;;
6288;SDS011;3177;49.880;8.836;2023-05-10T14:50:30;1.13;;;1.02;;
6288;SDS011;3177;49.880;8.836;2023-05-10T14:52:57;1.90;;;1.30;;
6288;SDS011;3177;49.880;8.836;2023-05-10T14:55:24;2.75;;;1.13;;
6288;SDS011;3177;49.880;8.836;2023-05-10T14:57:52;3.22;;;1.02;;
6288;SDS011;3177;49.880;8.836;2023-05-10T15:00:21;1.77;;;1.13;;
6288;SDS011;3177;49.880;8.836;2023-05-10T15:02:48;2.45;;;1.13;;
6288;SDS011;3177;49.880;8.836;2023-05-10T15:05:15;2.10;;;1.00;;
6288;SDS011;3177;49.880;8.836;2023-05-10T15:07:42;1.80;;;0.93;;
6288;SDS011;3177;49.880;8.836;2023-05-10T15:10:09;2.40;;;1.27;;
6288;SDS011;3177;49.880;8.836;2023-05-10T15:12:37;2.15;;;1.00;;
6288;SDS011;3177;49.880;8.836;2023-05-10T15:15:04;1.98;;;0.95;;
6288;SDS011;3177;49.880;8.836;2023-05-10T15:17:33;1.65;;;1.10;;
6288;SDS011;3177;49.880;8.836;2023-05-10T15:20:00;1.08;;;0.95;;
6288;SDS011;3177;49.880;8.836;2023-05-10T15:22:28;2.78;;;1.20;;
6288;SDS011;3177;49.880;8.836;2023-05-10T15:24:56;3.00;;;1.00;;
6288;SDS011;3177;49.880;8.836;2023-05-10T15:27:23;2.70;;;1.00;;
6288;SDS011;3177;49.880;8.836;2023-05-10T15:29:50;1.30;;;0.80;;
6288;SDS011;3177;49.880;8.836;2023-05-10T15:32:17;2.67;;;1.00;;
6288;SDS011;3177;49.880;8.836;2023-05-10T15:34:46;2.53;;;1.20;;